createdAt,value
2023-02-22T00:02:13.318Z,97072.14
2023-02-22T00:04:42.703Z,97070.91
2023-02-22T00:07:11.990Z,97078.51
2023-02-22T00:09:42.415Z,97085.91
2023-02-22T00:12:11.099Z,97091.20
2023-02-22T00:14:40.707Z,97092.17
2023-02-22T00:17:10.025Z,97096.41
2023-02-22T00:19:38.901Z,97100.31
2023-02-22T00:22:08.094Z,97100.89
2023-02-22T00:24:37.973Z,97101.77
2023-02-22T00:27:06.904Z,97109.32
2023-02-22T00:29:36.813Z,97107.61
2023-02-22T00:32:06.197Z,97115.16
2023-02-22T00:34:37.070Z,97116.33
2023-02-22T00:37:05.940Z,97121.31
2023-02-22T00:39:34.535Z,97122.05
2023-02-22T00:42:04.334Z,97118.45
2023-02-22T00:44:33.431Z,97125.86
2023-02-22T00:47:02.430Z,97126.45
2023-02-22T00:49:31.476Z,97132.00
2023-02-22T00:52:00.509Z,97137.70
2023-02-22T00:54:29.913Z,97141.95
2023-02-22T00:56:59.838Z,97145.63
2023-02-22T00:59:31.492Z,97149.46
2023-02-22T01:02:00.528Z,97155.55
2023-02-22T01:04:32.450Z,97159.13
2023-02-22T01:07:01.543Z,97168.32
2023-02-22T01:09:30.423Z,97177.98
2023-02-22T01:11:59.311Z,97182.29
2023-02-22T01:14:29.020Z,97187.64
2023-02-22T01:16:58.217Z,97190.23
2023-02-22T01:19:32.650Z,97192.80
2023-02-22T01:22:02.149Z,97200.52
2023-02-22T01:24:30.902Z,97204.15
2023-02-22T01:27:00.004Z,97211.27
2023-02-22T01:29:28.933Z,97220.52
2023-02-22T01:31:58.150Z,97224.96
2023-02-22T01:34:27.099Z,97231.02
2023-02-22T01:36:57.632Z,97229.98
2023-02-22T01:39:26.932Z,97230.72
2023-02-22T01:41:58.789Z,97236.91
2023-02-22T01:44:36.507Z,97238.24
2023-02-22T01:47:11.429Z,97241.30
2023-02-22T01:49:46.671Z,97243.34
2023-02-22T01:52:19.903Z,97248.27
2023-02-22T01:54:52.559Z,97251.63
2023-02-22T01:57:30.123Z,97257.65
2023-02-22T02:00:00.939Z,97261.13
2023-02-22T02:02:30.052Z,97266.64
2023-02-22T02:04:59.793Z,97270.94
2023-02-22T02:07:29.909Z,97271.85
2023-02-22T02:10:00.147Z,97274.95
2023-02-22T02:12:30.763Z,97284.30
2023-02-22T02:15:17.977Z,97292.15
2023-02-22T02:17:48.101Z,97303.00
2023-02-22T02:20:22.494Z,97312.48
2023-02-22T02:23:26.711Z,97316.25
2023-02-22T02:26:16.694Z,97325.63
2023-02-22T02:28:56.983Z,97335.79
2023-02-22T02:31:53.407Z,97345.44
2023-02-22T02:34:36.227Z,97352.14
2023-02-22T02:37:39.006Z,97359.29
2023-02-22T02:40:19.568Z,97373.95
2023-02-22T02:42:53.931Z,97380.37
2023-02-22T02:45:31.459Z,97385.98
2023-02-22T02:48:01.994Z,97390.98
2023-02-22T02:50:37.014Z,97402.36
2023-02-22T02:53:08.589Z,97401.40
2023-02-22T02:55:37.686Z,97409.46
2023-02-22T02:58:07.304Z,97417.27
2023-02-22T03:00:39.903Z,97423.86
2023-02-22T03:03:32.099Z,97424.80
2023-02-22T03:06:23.562Z,97426.02
2023-02-22T03:09:14.177Z,97425.09
2023-02-22T03:12:19.970Z,97427.11
2023-02-22T03:15:22.141Z,97424.62
2023-02-22T03:18:02.521Z,97412.18
2023-02-22T03:20:43.381Z,97413.59
2023-02-22T03:23:21.582Z,97420.77
2023-02-22T03:25:54.311Z,97427.51
2023-02-22T03:28:26.596Z,97439.62
2023-02-22T03:31:02.255Z,97447.52
2023-02-22T03:33:38.184Z,97453.27
2023-02-22T03:36:30.987Z,97471.00
2023-02-22T03:39:00.547Z,97474.29
2023-02-22T03:41:28.781Z,97482.27
2023-02-22T03:44:09.880Z,97487.85
2023-02-22T03:46:41.413Z,97504.09
2023-02-22T03:49:10.808Z,97515.02
2023-02-22T03:51:41.279Z,97522.98
2023-02-22T03:54:16.742Z,97537.52
2023-02-22T03:57:01.637Z,97546.70
2023-02-22T03:59:31.652Z,97566.27
2023-02-22T04:02:02.488Z,97588.48
2023-02-22T04:04:31.437Z,97607.51
2023-02-22T04:07:00.629Z,97628.02
2023-02-22T04:09:33.155Z,97640.55
2023-02-22T04:12:01.811Z,97654.50
2023-02-22T04:14:32.990Z,97672.36
2023-02-22T04:17:01.972Z,97691.64
2023-02-22T04:19:30.874Z,97713.56
2023-02-22T04:22:00.469Z,97738.69
2023-02-22T04:24:30.632Z,97758.15
2023-02-22T04:27:01.138Z,97774.73
2023-02-22T04:29:30.421Z,97786.99
2023-02-22T04:32:00.747Z,97793.15
2023-02-22T04:34:29.973Z,97802.73
2023-02-22T04:36:59.240Z,97810.99
2023-02-22T04:39:28.958Z,97820.98
2023-02-22T04:41:57.735Z,97836.81
2023-02-22T04:44:26.324Z,97846.60
2023-02-22T04:46:55.110Z,97856.14
2023-02-22T04:49:24.918Z,97867.38
2023-02-22T04:51:54.740Z,97884.38
2023-02-22T04:54:27.412Z,97896.39
2023-02-22T04:56:56.299Z,97905.12
2023-02-22T04:59:24.810Z,97919.45
2023-02-22T05:02:01.164Z,97923.73
2023-02-22T05:04:31.057Z,97936.08
2023-02-22T05:07:00.067Z,97946.41
2023-02-22T05:09:29.044Z,97959.27
2023-02-22T05:11:57.346Z,97969.77
2023-02-22T05:14:27.568Z,97979.38
2023-02-22T05:17:02.577Z,97988.13
2023-02-22T05:19:31.915Z,97993.65
2023-02-22T05:22:00.705Z,97998.81
2023-02-22T05:24:29.671Z,98008.19
2023-02-22T05:26:58.648Z,98016.27
2023-02-22T05:29:27.440Z,98024.49
2023-02-22T05:31:56.245Z,98045.93
2023-02-22T05:34:25.307Z,98072.08
2023-02-22T05:36:53.906Z,98081.98
2023-02-22T05:39:22.793Z,98103.91
2023-02-22T05:41:51.380Z,98123.33
2023-02-22T05:44:20.986Z,98136.45
2023-02-22T05:46:49.376Z,98144.81
2023-02-22T05:49:18.150Z,98153.73
2023-02-22T05:51:46.426Z,98164.00
2023-02-22T05:54:14.905Z,98174.57
2023-02-22T05:56:43.487Z,98182.48
2023-02-22T05:59:12.310Z,98186.27
2023-02-22T06:01:42.519Z,98195.39
2023-02-22T06:04:11.189Z,98194.64
2023-02-22T06:06:39.797Z,98198.60
2023-02-22T06:09:08.862Z,98203.71
2023-02-22T06:11:37.752Z,98207.05
2023-02-22T06:14:08.443Z,98216.39
2023-02-22T06:16:37.299Z,98211.99
2023-02-22T06:19:06.149Z,98216.77
2023-02-22T06:21:35.360Z,98214.58
2023-02-22T06:24:06.920Z,98216.38
2023-02-22T06:26:36.311Z,98222.54
2023-02-22T06:29:06.077Z,98222.41
2023-02-22T06:31:34.451Z,98224.06
2023-02-22T06:34:03.089Z,98226.51
2023-02-22T06:36:35.560Z,98234.79
2023-02-22T06:39:04.038Z,98240.50
2023-02-22T06:41:33.032Z,98248.77
2023-02-22T06:44:01.725Z,98249.48
2023-02-22T06:46:31.335Z,98256.00
2023-02-22T06:49:00.413Z,98258.98
2023-02-22T06:51:29.744Z,98265.09
2023-02-22T06:53:59.939Z,98272.99
2023-02-22T06:56:28.974Z,98271.08
2023-02-22T06:59:01.602Z,98269.77
2023-02-22T07:01:31.445Z,98275.27
2023-02-22T07:04:05.142Z,98278.45
2023-02-22T07:06:34.844Z,98279.44
2023-02-22T07:09:04.341Z,98281.32
2023-02-22T07:11:32.927Z,98298.52
2023-02-22T07:14:03.982Z,98309.55
2023-02-22T07:16:34.143Z,98318.48
2023-02-22T07:19:02.875Z,98328.96
2023-02-22T07:21:31.769Z,98340.44
2023-02-22T07:24:00.552Z,98348.54
2023-02-22T07:26:29.783Z,98361.36
2023-02-22T07:28:58.539Z,98372.69
2023-02-22T07:31:29.574Z,98378.80
2023-02-22T07:33:59.896Z,98379.92
2023-02-22T07:36:29.187Z,98382.84
2023-02-22T07:38:58.044Z,98387.42
2023-02-22T07:41:27.091Z,98394.68
2023-02-22T07:43:55.874Z,98395.05
2023-02-22T07:46:24.559Z,98387.63
2023-02-22T07:48:52.951Z,98391.37
2023-02-22T07:51:21.628Z,98390.59
2023-02-22T07:53:50.206Z,98387.42
2023-02-22T07:56:19.097Z,98382.59
2023-02-22T07:58:47.678Z,98378.83
2023-02-22T08:01:16.320Z,98373.15
2023-02-22T08:03:47.804Z,98365.08
2023-02-22T08:06:16.644Z,98362.86
2023-02-22T08:08:47.443Z,98359.27
2023-02-22T08:11:16.285Z,98352.36
2023-02-22T08:13:46.348Z,98353.58
2023-02-22T08:16:14.931Z,98359.14
2023-02-22T08:18:44.025Z,98374.23
2023-02-22T08:21:14.154Z,98389.87
2023-02-22T08:23:43.649Z,98417.66
2023-02-22T08:26:15.823Z,98434.62
2023-02-22T08:28:44.605Z,98445.63
2023-02-22T08:31:13.383Z,98459.06
2023-02-22T08:33:48.337Z,98476.23
2023-02-22T08:36:18.736Z,98498.70
2023-02-22T08:38:47.464Z,98518.70
2023-02-22T08:41:16.889Z,98529.39
2023-02-22T08:43:46.106Z,98541.04
2023-02-22T08:46:17.252Z,98545.27
2023-02-22T08:48:52.616Z,98545.75
2023-02-22T08:51:21.412Z,98545.94
2023-02-22T08:53:50.708Z,98550.53
2023-02-22T08:56:19.630Z,98555.81
2023-02-22T08:58:48.483Z,98563.59
2023-02-22T09:01:27.919Z,98583.25
2023-02-22T09:04:02.367Z,98597.50
2023-02-22T09:06:32.151Z,98609.31
2023-02-22T09:09:01.962Z,98624.55
2023-02-22T09:11:30.379Z,98634.08
2023-02-22T09:13:59.754Z,98648.41
2023-02-22T09:16:29.493Z,98658.34
2023-02-22T09:18:58.548Z,98659.58
2023-02-22T09:21:27.543Z,98669.41
2023-02-22T09:23:56.229Z,98673.27
2023-02-22T09:26:25.014Z,98674.88
2023-02-22T09:28:54.210Z,98670.77
2023-02-22T09:31:24.713Z,98674.37
2023-02-22T09:33:54.552Z,98668.84
2023-02-22T09:36:25.109Z,98666.47
2023-02-22T09:38:55.303Z,98660.92
2023-02-22T09:41:34.629Z,98655.48
2023-02-22T09:44:18.578Z,98650.02
2023-02-22T09:46:47.150Z,98642.83
2023-02-22T09:49:16.171Z,98636.61
2023-02-22T09:51:53.139Z,98630.23
2023-02-22T09:54:39.652Z,98627.77
2023-02-22T09:57:11.470Z,98625.89
2023-02-22T09:59:48.723Z,98626.88
2023-02-22T10:02:25.875Z,98623.42
2023-02-22T10:05:06.175Z,98626.70
2023-02-22T10:07:39.527Z,98628.34
2023-02-22T10:10:16.511Z,98622.90
2023-02-22T10:13:01.881Z,98621.27
2023-02-22T10:15:38.373Z,98620.54
2023-02-22T10:18:45.036Z,98620.52
2023-02-22T10:21:18.851Z,98617.66
2023-02-22T10:24:05.561Z,98618.67
2023-02-22T10:26:37.071Z,98617.08
2023-02-22T10:29:09.269Z,98611.60
2023-02-22T10:31:41.689Z,98609.95
2023-02-22T10:34:20.715Z,98610.96
2023-02-22T10:36:50.733Z,98611.34
2023-02-22T10:39:31.917Z,98609.89
2023-02-22T10:42:08.234Z,98602.43
2023-02-22T10:44:38.848Z,98612.45
2023-02-22T10:47:11.067Z,98635.87
2023-02-22T10:49:44.058Z,98654.75
2023-02-22T10:52:22.114Z,98652.54
2023-02-22T10:54:52.231Z,98648.41
2023-02-22T10:57:23.783Z,98654.00
2023-02-22T10:59:52.570Z,98687.27
2023-02-22T11:02:24.149Z,98723.97
2023-02-22T11:04:55.721Z,98750.82
2023-02-22T11:07:35.335Z,98769.95
2023-02-22T11:10:06.263Z,98785.52
2023-02-22T11:12:48.884Z,98795.27
2023-02-22T11:15:19.004Z,98802.06
2023-02-22T11:17:49.160Z,98810.27
2023-02-22T11:20:25.905Z,98816.94
2023-02-22T11:23:00.138Z,98823.88
2023-02-22T11:25:34.060Z,98826.60
2023-02-22T11:28:34.939Z,98823.38
2023-02-22T11:31:16.294Z,98830.06
2023-02-22T11:33:49.724Z,98837.69
2023-02-22T11:36:34.090Z,98846.16
2023-02-22T11:39:06.048Z,98849.22
2023-02-22T11:41:35.506Z,98849.79
2023-02-22T11:44:22.102Z,98857.46
2023-02-22T11:46:51.365Z,98862.52
2023-02-22T11:49:20.537Z,98865.19
2023-02-22T11:52:18.507Z,98868.88
2023-02-22T11:55:10.595Z,98868.17
2023-02-22T11:57:51.742Z,98869.09
2023-02-22T12:00:27.164Z,98864.04
2023-02-22T12:03:27.590Z,98864.84
2023-02-22T12:06:00.700Z,98857.83
2023-02-22T12:08:45.795Z,98857.27
2023-02-22T12:11:23.097Z,98856.48
2023-02-22T12:13:55.207Z,98857.52
2023-02-22T12:16:29.552Z,98855.70
2023-02-22T12:19:28.929Z,98852.48
2023-02-22T12:22:03.815Z,98849.22
2023-02-22T12:24:40.123Z,98839.67
2023-02-22T12:27:12.310Z,98831.88
2023-02-22T12:29:49.887Z,98836.85
2023-02-22T12:32:22.094Z,98842.08
2023-02-22T12:35:10.430Z,98847.87
2023-02-22T12:37:52.895Z,98854.65
2023-02-22T12:40:30.202Z,98857.86
2023-02-22T12:43:22.748Z,98854.64
2023-02-22T12:46:29.406Z,98855.56
2023-02-22T12:49:23.605Z,98850.86
2023-02-22T12:52:21.357Z,98856.80
2023-02-22T12:55:00.531Z,98855.19
2023-02-22T12:58:01.547Z,98856.16
2023-02-22T13:00:35.704Z,98853.11
2023-02-22T13:03:23.187Z,98859.83
2023-02-22T13:05:56.990Z,98871.07
2023-02-22T13:08:26.086Z,98876.46
2023-02-22T13:11:05.521Z,98879.86
2023-02-22T13:13:37.793Z,98885.83
2023-02-22T13:16:38.019Z,98884.77
2023-02-22T13:19:42.846Z,98883.61
2023-02-22T13:22:27.007Z,98890.13
2023-02-22T13:24:58.856Z,98892.95
2023-02-22T13:28:02.357Z,98896.66
2023-02-22T13:30:43.073Z,98905.76
2023-02-22T13:33:43.659Z,98912.33
2023-02-22T13:36:22.931Z,98920.09
2023-02-22T13:39:19.635Z,98929.66
2023-02-22T13:41:52.514Z,98947.27
2023-02-22T13:45:00.118Z,98949.66
2023-02-22T13:47:47.538Z,98949.19
2023-02-22T13:50:53.610Z,98963.23
2023-02-22T13:53:29.454Z,98977.73
2023-02-22T13:56:00.288Z,98988.35
2023-02-22T13:58:30.138Z,99001.86
2023-02-22T14:00:59.700Z,99021.36
2023-02-22T14:03:36.590Z,99042.90
2023-02-22T14:06:25.031Z,99057.52
2023-02-22T14:08:53.828Z,99073.64
2023-02-22T14:11:24.450Z,99076.92
2023-02-22T14:14:01.190Z,99082.80
2023-02-22T14:16:31.243Z,99087.58
2023-02-22T14:19:23.914Z,99095.44
2023-02-22T14:22:03.185Z,99100.52
2023-02-22T14:24:47.521Z,99095.13
2023-02-22T14:27:17.915Z,99093.36
2023-02-22T14:30:00.819Z,99088.42
2023-02-22T14:32:31.658Z,99093.55
2023-02-22T14:35:14.369Z,99095.48
2023-02-22T14:37:50.338Z,99093.29
2023-02-22T14:40:26.060Z,99090.36
2023-02-22T14:43:03.373Z,99091.69
2023-02-22T14:45:34.381Z,99100.80
2023-02-22T14:48:26.755Z,99101.04
2023-02-22T14:51:11.815Z,99104.89
2023-02-22T14:54:03.003Z,99106.98
2023-02-22T14:56:41.539Z,99106.25
2023-02-22T14:59:26.203Z,99106.15
2023-02-22T15:02:11.372Z,99106.26
2023-02-22T15:04:44.354Z,99112.62
2023-02-22T15:07:22.555Z,99113.46
2023-02-22T15:09:51.117Z,99110.06
2023-02-22T15:12:25.058Z,99113.63
2023-02-22T15:15:13.201Z,99116.59
2023-02-22T15:17:46.493Z,99116.42
2023-02-22T15:20:16.921Z,99114.69
2023-02-22T15:22:45.828Z,99113.21
2023-02-22T15:25:14.704Z,99115.96
2023-02-22T15:27:47.242Z,99115.94
2023-02-22T15:30:20.453Z,99121.14
2023-02-22T15:33:03.258Z,99122.39
2023-02-22T15:35:33.848Z,99127.61
2023-02-22T15:38:06.335Z,99131.31
2023-02-22T15:40:35.290Z,99131.86
2023-02-22T15:43:09.129Z,99135.18
2023-02-22T15:45:43.253Z,99141.91
2023-02-22T15:48:12.404Z,99147.55
2023-02-22T15:51:01.174Z,99142.80
2023-02-22T15:53:33.793Z,99155.12
2023-02-22T15:56:02.932Z,99159.98
2023-02-22T15:58:32.538Z,99164.95
2023-02-22T16:01:05.946Z,99167.77
2023-02-22T16:03:45.154Z,99173.32
2023-02-22T16:06:18.487Z,99184.88
2023-02-22T16:08:55.074Z,99188.43
2023-02-22T16:11:33.761Z,99191.09
2023-02-22T16:14:05.422Z,99196.13
2023-02-22T16:16:36.728Z,99203.78
2023-02-22T16:19:18.150Z,99209.02
2023-02-22T16:21:58.631Z,99206.27
2023-02-22T16:24:30.973Z,99208.80
2023-02-22T16:27:16.143Z,99205.94
2023-02-22T16:30:01.022Z,99208.69
2023-02-22T16:32:30.896Z,99215.30
2023-02-22T16:35:03.550Z,99216.85
2023-02-22T16:37:33.824Z,99221.55
2023-02-22T16:40:02.814Z,99221.48
2023-02-22T16:42:31.908Z,99226.48
2023-02-22T16:45:01.105Z,99228.17
2023-02-22T16:47:30.005Z,99234.11
2023-02-22T16:49:59.318Z,99234.17
2023-02-22T16:52:28.394Z,99237.50
2023-02-22T16:54:57.485Z,99239.14
2023-02-22T16:57:26.378Z,99240.41
2023-02-22T16:59:55.690Z,99241.68
2023-02-22T17:02:28.253Z,99247.53
2023-02-22T17:04:57.988Z,99252.57
2023-02-22T17:07:31.149Z,99255.48
2023-02-22T17:10:03.828Z,99256.48
2023-02-22T17:12:33.535Z,99253.60
2023-02-22T17:15:04.018Z,99249.11
2023-02-22T17:17:35.429Z,99244.30
2023-02-22T17:20:11.676Z,99247.84
2023-02-22T17:22:40.576Z,99245.34
2023-02-22T17:25:23.393Z,99242.06
2023-02-22T17:27:52.176Z,99241.92
2023-02-22T17:30:23.809Z,99239.77
2023-02-22T17:32:53.285Z,99237.36
2023-02-22T17:35:27.162Z,99244.09
2023-02-22T17:37:56.231Z,99249.39
2023-02-22T17:40:25.413Z,99247.36
2023-02-22T17:42:55.754Z,99255.47
2023-02-22T17:45:25.243Z,99256.00
2023-02-22T17:47:54.047Z,99258.71
2023-02-22T17:50:23.457Z,99258.26
2023-02-22T17:52:52.446Z,99263.27
2023-02-22T17:55:21.810Z,99263.05
2023-02-22T17:57:58.514Z,99268.33
2023-02-22T18:00:34.474Z,99267.70
2023-02-22T18:03:08.377Z,99266.65
2023-02-22T18:05:43.213Z,99264.98
2023-02-22T18:08:12.610Z,99269.79
2023-02-22T18:10:42.728Z,99267.45
2023-02-22T18:13:16.957Z,99270.55
2023-02-22T18:15:50.262Z,99273.76
2023-02-22T18:18:19.409Z,99273.78
2023-02-22T18:20:51.921Z,99279.39
2023-02-22T18:23:22.477Z,99285.17
2023-02-22T18:26:09.138Z,99290.88
2023-02-22T18:28:39.409Z,99291.91
2023-02-22T18:31:16.026Z,99292.56
2023-02-22T18:33:46.382Z,99298.34
2023-02-22T18:36:16.140Z,99305.41
2023-02-22T18:38:45.275Z,99313.52
2023-02-22T18:41:15.341Z,99310.60
2023-02-22T18:43:44.589Z,99315.00
2023-02-22T18:46:14.646Z,99315.45
2023-02-22T18:48:44.731Z,99318.05
2023-02-22T18:51:17.743Z,99318.73
2023-02-22T18:53:50.953Z,99319.91
2023-02-22T18:56:30.129Z,99321.19
2023-02-22T18:59:03.652Z,99324.05
2023-02-22T19:01:39.073Z,99330.70
2023-02-22T19:04:15.239Z,99335.04
2023-02-22T19:06:45.869Z,99334.36
2023-02-22T19:09:16.889Z,99335.27
2023-02-22T19:11:47.232Z,99338.72
2023-02-22T19:14:17.866Z,99338.45
2023-02-22T19:16:46.867Z,99339.24
2023-02-22T19:19:21.184Z,99341.30
2023-02-22T19:21:50.885Z,99340.88
2023-02-22T19:24:19.978Z,99336.65
2023-02-22T19:26:54.194Z,99333.54
2023-02-22T19:29:26.169Z,99332.69
2023-02-22T19:31:55.377Z,99333.67
2023-02-22T19:34:26.292Z,99334.65
2023-02-22T19:36:56.226Z,99334.59
2023-02-22T19:39:26.235Z,99337.59
2023-02-22T19:41:56.237Z,99335.17
2023-02-22T19:44:26.282Z,99338.50
2023-02-22T19:46:57.855Z,99338.58
2023-02-22T19:49:28.176Z,99341.42
2023-02-22T19:51:58.366Z,99340.68
2023-02-22T19:54:28.079Z,99344.27
2023-02-22T19:56:58.841Z,99344.58
2023-02-22T19:59:28.515Z,99347.73
2023-02-22T20:01:57.807Z,99346.04
2023-02-22T20:04:30.859Z,99347.89
2023-02-22T20:07:00.910Z,99344.84
2023-02-22T20:09:30.322Z,99357.12
2023-02-22T20:11:59.412Z,99354.80
2023-02-22T20:14:28.859Z,99355.52
2023-02-22T20:16:58.382Z,99348.58
2023-02-22T20:19:28.333Z,99351.78
2023-02-22T20:21:56.943Z,99355.66
2023-02-22T20:24:28.465Z,99350.45
2023-02-22T20:26:58.709Z,99351.02
2023-02-22T20:29:32.603Z,99353.05
2023-02-22T20:32:01.460Z,99354.55
2023-02-22T20:34:34.482Z,99352.17
2023-02-22T20:37:03.768Z,99350.98
2023-02-22T20:39:32.763Z,99349.04
2023-02-22T20:42:03.088Z,99348.42
2023-02-22T20:44:32.386Z,99352.71
2023-02-22T20:47:03.943Z,99353.36
2023-02-22T20:49:36.228Z,99357.73
2023-02-22T20:52:04.996Z,99358.10
2023-02-22T20:54:35.422Z,99354.39
2023-02-22T20:57:04.242Z,99354.70
2023-02-22T20:59:32.595Z,99354.09
2023-02-22T21:02:01.185Z,99359.09
2023-02-22T21:04:33.250Z,99356.92
2023-02-22T21:07:02.770Z,99359.73
2023-02-22T21:09:34.916Z,99358.04
2023-02-22T21:12:11.588Z,99353.86
2023-02-22T21:14:41.708Z,99350.29
2023-02-22T21:17:11.425Z,99347.18
2023-02-22T21:19:39.893Z,99347.63
2023-02-22T21:22:12.883Z,99345.48
2023-02-22T21:24:42.913Z,99345.02
2023-02-22T21:27:12.819Z,99342.58
2023-02-22T21:29:42.317Z,99338.67
2023-02-22T21:32:10.915Z,99334.41
2023-02-22T21:34:39.996Z,99335.22
2023-02-22T21:37:08.980Z,99334.27
2023-02-22T21:39:39.022Z,99336.59
2023-02-22T21:42:08.490Z,99338.46
2023-02-22T21:44:38.034Z,99343.50
2023-02-22T21:47:08.336Z,99341.49
2023-02-22T21:49:38.469Z,99341.88
2023-02-22T21:52:08.177Z,99345.09
2023-02-22T21:54:37.169Z,99342.46
2023-02-22T21:57:06.773Z,99346.70
2023-02-22T21:59:35.869Z,99344.92
2023-02-22T22:02:04.653Z,99349.98
2023-02-22T22:04:35.300Z,99357.15
2023-02-22T22:07:05.711Z,99359.77
2023-02-22T22:09:37.868Z,99368.89
2023-02-22T22:12:10.228Z,99370.63
2023-02-22T22:14:39.139Z,99370.45
2023-02-22T22:17:09.884Z,99372.85
2023-02-22T22:19:40.798Z,99372.31
2023-02-22T22:22:09.701Z,99371.42
2023-02-22T22:24:42.062Z,99371.56
2023-02-22T22:27:13.340Z,99371.55
2023-02-22T22:29:43.753Z,99377.34
2023-02-22T22:32:14.000Z,99377.25
2023-02-22T22:34:43.970Z,99371.58
2023-02-22T22:37:13.589Z,99375.11
2023-02-22T22:39:42.910Z,99378.03
2023-02-22T22:42:11.872Z,99376.42
2023-02-22T22:44:43.325Z,99379.41
2023-02-22T22:47:12.782Z,99380.83
2023-02-22T22:49:42.969Z,99381.16
2023-02-22T22:52:15.425Z,99381.18
2023-02-22T22:54:50.974Z,99383.59
2023-02-22T22:57:20.373Z,99389.79
2023-02-22T22:59:50.282Z,99395.83
2023-02-22T23:02:20.604Z,99401.86
2023-02-22T23:04:52.383Z,99409.48
2023-02-22T23:07:21.006Z,99420.49
2023-02-22T23:09:50.137Z,99424.63
2023-02-22T23:12:19.850Z,99428.29
2023-02-22T23:14:52.337Z,99428.26
2023-02-22T23:17:31.541Z,99433.70
2023-02-22T23:20:00.652Z,99439.05
2023-02-22T23:22:29.976Z,99444.17
2023-02-22T23:25:00.286Z,99449.84
2023-02-22T23:27:30.502Z,99455.67
2023-02-22T23:29:59.806Z,99462.29
2023-02-22T23:32:28.926Z,99467.52
2023-02-22T23:34:57.902Z,99473.05
2023-02-22T23:37:26.790Z,99476.46
2023-02-22T23:39:55.771Z,99477.29
2023-02-22T23:42:25.725Z,99480.51
2023-02-22T23:44:54.687Z,99481.92
2023-02-22T23:47:32.067Z,99494.42
2023-02-22T23:50:01.331Z,99493.76
2023-02-22T23:52:30.669Z,99502.56
2023-02-22T23:55:02.223Z,99509.88
2023-02-22T23:57:33.180Z,99511.77
